createdAt,value
2022-12-28T00:00:45.211Z,101073.41
2022-12-28T00:01:47.773Z,101068.13
2022-12-28T00:02:50.102Z,101073.59
2022-12-28T00:03:53.799Z,101077.16
2022-12-28T00:04:55.976Z,101088.09
2022-12-28T00:05:58.207Z,101079.28
2022-12-28T00:07:00.373Z,101079.28
2022-12-28T00:08:02.936Z,101078.41
2022-12-28T00:09:05.182Z,101080.31
2022-12-28T00:10:07.554Z,101082.00
2022-12-28T00:11:26.428Z,101081.13
2022-12-28T00:12:33.251Z,101085.75
2022-12-28T00:13:36.628Z,101078.41
2022-12-28T00:14:38.835Z,101083.88
2022-12-28T00:15:41.057Z,101070.41
2022-12-28T00:16:43.914Z,101072.09
2022-12-28T00:17:46.081Z,101068.50
2022-12-28T00:18:48.278Z,101075.66
2022-12-28T00:19:57.965Z,101074.84
2022-12-28T00:21:01.501Z,101073.97
2022-12-28T00:22:03.712Z,101074.84
2022-12-28T00:23:07.225Z,101075.03
2022-12-28T00:24:18.000Z,101065.78
2022-12-28T00:25:22.489Z,101064.94
2022-12-28T00:26:25.946Z,101069.38
2022-12-28T00:27:28.147Z,101062.00
2022-12-28T00:28:30.313Z,101064.53
2022-12-28T00:29:32.620Z,101066.66
2022-12-28T00:30:34.819Z,101062.00
2022-12-28T00:31:37.044Z,101063.72
2022-12-28T00:32:39.240Z,101064.53
2022-12-28T00:33:42.094Z,101068.97
2022-12-28T00:34:44.245Z,101068.97
2022-12-28T00:36:02.771Z,101064.38
2022-12-28T00:37:09.999Z,101067.09
2022-12-28T00:38:14.974Z,101064.19
2022-12-28T00:39:17.466Z,101063.97
2022-12-28T00:40:24.011Z,101059.34
2022-12-28T00:41:26.509Z,101056.44
2022-12-28T00:42:28.747Z,101064.63
2022-12-28T00:43:33.077Z,101047.38
2022-12-28T00:44:35.311Z,101058.97
2022-12-28T00:45:38.046Z,101052.63
2022-12-28T00:46:40.315Z,101061.69
2022-12-28T00:47:42.442Z,101060.63
2022-12-28T00:48:44.760Z,101059.59
2022-12-28T00:49:46.974Z,101064.22
2022-12-28T00:50:49.525Z,101055.00
2022-12-28T00:51:51.709Z,101046.81
2022-12-28T00:52:53.977Z,101054.78
2022-12-28T00:53:56.141Z,101056.50
2022-12-28T00:54:58.361Z,101049.97
2022-12-28T00:56:09.025Z,101049.78
2022-12-28T00:57:11.182Z,101052.69
2022-12-28T00:58:14.179Z,101054.19
2022-12-28T00:59:17.602Z,101047.69
2022-12-28T01:00:19.923Z,101043.91
2022-12-28T01:01:24.545Z,101046.44
2022-12-28T01:03:09.192Z,101050.88
2022-12-28T01:04:11.483Z,101050.06
2022-12-28T01:05:13.662Z,101053.63
2022-12-28T01:06:19.695Z,101058.03
2022-12-28T01:07:21.842Z,101048.16
2022-12-28T01:08:27.288Z,101050.69
2022-12-28T01:09:29.416Z,101045.22
2022-12-28T01:10:31.614Z,101042.47
2022-12-28T01:11:33.823Z,101039.75
2022-12-28T01:12:38.269Z,101043.34
2022-12-28T01:13:40.777Z,101045.22
2022-12-28T01:14:42.921Z,101045.00
2022-12-28T01:15:45.080Z,101048.59
2022-12-28T01:16:47.399Z,101044.19
2022-12-28T01:17:50.349Z,101046.06
2022-12-28T01:18:55.158Z,101042.47
2022-12-28T01:19:57.331Z,101035.97
2022-12-28T01:20:59.471Z,101026.75
2022-12-28T01:22:01.890Z,101031.19
2022-12-28T01:23:04.026Z,101025.88
2022-12-28T01:24:09.033Z,101039.38
2022-12-28T01:25:11.308Z,101029.47
2022-12-28T01:26:14.409Z,101032.22
2022-12-28T01:27:16.541Z,101034.28
2022-12-28T01:28:18.673Z,101034.09
2022-12-28T01:29:20.794Z,101033.03
2022-12-28T01:30:24.076Z,101029.47
2022-12-28T01:31:26.689Z,101026.53
2022-12-28T01:32:29.915Z,101025.72
2022-12-28T01:33:32.398Z,101022.31
2022-12-28T01:34:34.598Z,101026.53
2022-12-28T01:35:36.766Z,101023.81
2022-12-28T01:36:38.963Z,101027.38
2022-12-28T01:37:41.212Z,101021.06
2022-12-28T01:38:45.821Z,101015.63
2022-12-28T01:39:48.018Z,101017.50
2022-12-28T01:40:50.345Z,101012.03
2022-12-28T01:41:53.623Z,101018.53
2022-12-28T01:42:56.068Z,101021.06
2022-12-28T01:43:58.145Z,101010.34
2022-12-28T01:45:16.409Z,101001.28
2022-12-28T01:46:21.487Z,101009.50
2022-12-28T01:47:31.799Z,100998.56
2022-12-28T01:48:36.915Z,101001.28
2022-12-28T01:49:47.939Z,100991.44
2022-12-28T01:50:51.168Z,100996.91
2022-12-28T01:52:24.779Z,100994.34
2022-12-28T01:53:27.095Z,100994.34
2022-12-28T01:54:34.035Z,100993.50
2022-12-28T01:55:41.515Z,100991.81
2022-12-28T01:56:47.112Z,100997.28
2022-12-28T01:57:58.552Z,100995.56
2022-12-28T01:59:00.916Z,101001.03
2022-12-28T02:00:16.535Z,100992.84
2022-12-28T02:01:21.565Z,100994.94
2022-12-28T02:02:24.156Z,100993.03
2022-12-28T02:03:31.952Z,100999.38
2022-12-28T02:04:34.824Z,100993.25
2022-12-28T02:05:41.137Z,100987.78
2022-12-28T02:06:43.594Z,100985.06
2022-12-28T02:07:57.553Z,100986.28
2022-12-28T02:09:23.299Z,100974.34
2022-12-28T02:10:40.617Z,100987.13
2022-12-28T02:11:48.571Z,100971.59
2022-12-28T02:12:51.658Z,100972.63
2022-12-28T02:13:55.382Z,100960.88
2022-12-28T02:14:57.596Z,100961.91
2022-12-28T02:15:59.735Z,100961.91
2022-12-28T02:17:01.997Z,100960.22
2022-12-28T02:18:04.511Z,100963.16
2022-12-28T02:19:09.785Z,100952.22
2022-12-28T02:20:12.201Z,100949.50
2022-12-28T02:22:01.735Z,100954.09
2022-12-28T02:23:32.494Z,100954.28
2022-12-28T02:24:46.824Z,100945.28
2022-12-28T02:26:17.303Z,100948.22
2022-12-28T02:27:37.534Z,100940.84
2022-12-28T02:29:10.041Z,100938.31
2022-12-28T02:30:14.257Z,100932.84
2022-12-28T02:31:30.900Z,100925.06
2022-12-28T02:33:17.446Z,100937.88
2022-12-28T02:34:27.562Z,100927.34
2022-12-28T02:35:56.439Z,100919.38
2022-12-28T02:37:16.673Z,100929.22
2022-12-28T02:38:26.101Z,100919.53
2022-12-28T02:39:34.331Z,100926.91
2022-12-28T02:40:43.389Z,100921.63
2022-12-28T02:41:47.178Z,100919.94
2022-12-28T02:42:53.822Z,100921.19
2022-12-28T02:43:56.200Z,100920.53
2022-12-28T02:45:28.259Z,100911.69
2022-12-28T02:46:50.978Z,100906.44
2022-12-28T02:48:14.498Z,100903.25
2022-12-28T02:49:39.269Z,100903.66
2022-12-28T02:50:55.453Z,100903.84
2022-12-28T02:52:03.502Z,100896.06
2022-12-28T02:53:41.881Z,100900.22
2022-12-28T02:55:36.819Z,100885.28
2022-12-28T02:56:56.062Z,100887.34
2022-12-28T02:58:17.116Z,100889.63
2022-12-28T02:59:21.967Z,100883.75
2022-12-28T03:00:28.850Z,100882.06
2022-12-28T03:01:33.814Z,100881.41
2022-12-28T03:02:54.434Z,100884.72
2022-12-28T03:04:28.881Z,100874.84
2022-12-28T03:05:49.785Z,100878.81
2022-12-28T03:07:29.012Z,100879.34
2022-12-28T03:08:46.882Z,100865.91
2022-12-28T03:09:53.807Z,100867.34
2022-12-28T03:11:08.567Z,100867.75
2022-12-28T03:12:23.701Z,100857.88
2022-12-28T03:13:50.693Z,100864.38
2022-12-28T03:15:08.427Z,100854.69
2022-12-28T03:16:20.284Z,100852.16
2022-12-28T03:17:44.780Z,100855.09
2022-12-28T03:19:11.846Z,100853.41
2022-12-28T03:20:42.915Z,100843.72
2022-12-28T03:22:05.059Z,100848.50
2022-12-28T03:23:30.114Z,100838.00
2022-12-28T03:24:55.533Z,100833.78
2022-12-28T03:26:23.770Z,100840.47
2022-12-28T03:27:47.124Z,100830.78
2022-12-28T03:29:13.780Z,100831.81
2022-12-28T03:30:39.796Z,100830.13
2022-12-28T03:31:43.956Z,100829.88
2022-12-28T03:32:50.396Z,100818.97
2022-12-28T03:34:06.822Z,100817.09
2022-12-28T03:35:23.496Z,100815.59
2022-12-28T03:36:38.952Z,100807.63
2022-12-28T03:37:50.267Z,100813.28
2022-12-28T03:39:01.842Z,100815.34
2022-12-28T03:40:16.966Z,100802.75
2022-12-28T03:41:39.322Z,100797.28
2022-12-28T03:43:22.996Z,100784.69
2022-12-28T03:44:33.073Z,100785.94
2022-12-28T03:45:47.493Z,100782.38
2022-12-28T03:47:08.241Z,100777.13
2022-12-28T03:48:11.483Z,100788.03
2022-12-28T03:49:14.003Z,100789.88
2022-12-28T03:50:19.195Z,100788.84
2022-12-28T03:51:24.744Z,100783.59
2022-12-28T03:52:29.047Z,100785.28
2022-12-28T03:53:42.363Z,100780.88
2022-12-28T03:54:47.455Z,100778.34
2022-12-28T03:55:50.949Z,100774.59
2022-12-28T03:56:55.047Z,100775.63
2022-12-28T03:58:02.311Z,100777.31
2022-12-28T03:59:04.909Z,100776.44
2022-12-28T04:00:14.551Z,100775.63
2022-12-28T04:01:21.804Z,100769.13
2022-12-28T04:02:24.365Z,100768.06
2022-12-28T04:03:27.374Z,100765.34
2022-12-28T04:04:29.607Z,100765.34
2022-12-28T04:05:31.832Z,100761.78
2022-12-28T04:06:34.265Z,100764.31
2022-12-28T04:07:36.503Z,100758.03
2022-12-28T04:08:39.207Z,100752.78
2022-12-28T04:09:41.650Z,100756.34
2022-12-28T04:10:45.864Z,100760.75
2022-12-28T04:11:48.027Z,100748.16
2022-12-28T04:12:57.816Z,100756.13
2022-12-28T04:14:10.234Z,100746.09
2022-12-28T04:15:14.446Z,100746.09
2022-12-28T04:16:16.705Z,100741.47
2022-12-28T04:17:22.209Z,100741.47
2022-12-28T04:18:24.723Z,100735.19
2022-12-28T04:19:28.303Z,100736.84
2022-12-28T04:20:30.555Z,100731.41
2022-12-28T04:21:32.793Z,100731.41
2022-12-28T04:22:35.129Z,100729.34
2022-12-28T04:23:37.860Z,100730.16
2022-12-28T04:24:58.648Z,100726.59
2022-12-28T04:26:11.476Z,100724.53
2022-12-28T04:27:15.227Z,100715.28
2022-12-28T04:28:17.430Z,100714.66
2022-12-28T04:29:38.018Z,100712.56
2022-12-28T04:30:47.868Z,100715.28
2022-12-28T04:31:50.186Z,100713.44
2022-12-28T04:32:55.863Z,100719.72
2022-12-28T04:33:59.216Z,100714.25
2022-12-28T04:35:02.146Z,100721.41
2022-12-28T04:36:09.539Z,100724.34
2022-12-28T04:37:11.709Z,100715.13
2022-12-28T04:38:13.977Z,100713.22
2022-12-28T04:39:16.365Z,100715.75
2022-12-28T04:40:18.520Z,100715.75
2022-12-28T04:41:20.957Z,100712.00
2022-12-28T04:42:24.152Z,100715.56
2022-12-28T04:43:26.320Z,100705.31
2022-12-28T04:44:28.489Z,100709.72
2022-12-28T04:45:30.646Z,100711.59
2022-12-28T04:46:33.046Z,100712.25
2022-12-28T04:47:35.216Z,100710.34
2022-12-28T04:48:37.550Z,100711.22
2022-12-28T04:49:39.770Z,100708.28
2022-12-28T04:50:42.071Z,100709.97
2022-12-28T04:51:44.266Z,100701.97
2022-12-28T04:52:46.429Z,100697.38
2022-12-28T04:53:48.754Z,100705.34
2022-12-28T04:54:50.967Z,100702.63
2022-12-28T04:55:54.058Z,100683.34
2022-12-28T04:56:56.229Z,100691.31
2022-12-28T04:57:58.477Z,100694.03
2022-12-28T04:59:00.998Z,100685.47
2022-12-28T05:00:04.359Z,100682.75
2022-12-28T05:01:12.184Z,100678.13
2022-12-28T05:02:14.459Z,100677.91
2022-12-28T05:03:16.690Z,100675.41
2022-12-28T05:04:19.824Z,100676.06
2022-12-28T05:05:22.003Z,100675.84
2022-12-28T05:06:25.747Z,100681.31
2022-12-28T05:07:29.390Z,100677.53
2022-12-28T05:08:33.315Z,100684.03
2022-12-28T05:09:35.454Z,100684.84
2022-12-28T05:10:37.643Z,100670.19
2022-12-28T05:11:42.775Z,100677.53
2022-12-28T05:12:45.042Z,100668.28
2022-12-28T05:13:48.011Z,100684.47
2022-12-28T05:14:50.239Z,100680.06
2022-12-28T05:15:52.439Z,100676.47
2022-12-28T05:16:54.624Z,100668.94
2022-12-28T05:17:56.765Z,100665.19
2022-12-28T05:18:59.012Z,100666.00
2022-12-28T05:20:02.263Z,100667.91
2022-12-28T05:21:08.052Z,100662.03
2022-12-28T05:22:12.084Z,100657.81
2022-12-28T05:23:14.193Z,100658.69
2022-12-28T05:24:16.390Z,100658.69
2022-12-28T05:25:18.606Z,100652.38
2022-12-28T05:26:23.529Z,100654.06
2022-12-28T05:27:25.759Z,100666.88
2022-12-28T05:28:28.249Z,100666.00
2022-12-28T05:29:30.539Z,100659.72
2022-12-28T05:30:32.717Z,100662.44
2022-12-28T05:31:35.020Z,100667.03
2022-12-28T05:32:37.216Z,100665.38
2022-12-28T05:33:40.327Z,100662.66
2022-12-28T05:34:44.783Z,100658.03
2022-12-28T05:35:47.019Z,100661.59
2022-12-28T05:36:51.730Z,100655.31
2022-12-28T05:37:53.947Z,100659.06
2022-12-28T05:38:57.229Z,100661.41
2022-12-28T05:39:59.407Z,100651.53
2022-12-28T05:41:13.907Z,100662.44
2022-12-28T05:42:16.105Z,100657.81
2022-12-28T05:43:18.285Z,100658.69
2022-12-28T05:44:20.513Z,100657.81
2022-12-28T05:45:22.686Z,100657.63
2022-12-28T05:46:45.991Z,100653.84
2022-12-28T05:47:48.337Z,100663.06
2022-12-28T05:48:50.616Z,100657.44
2022-12-28T05:49:52.910Z,100644.63
2022-12-28T05:50:59.786Z,100651.13
2022-12-28T05:52:02.060Z,100655.56
2022-12-28T05:53:04.213Z,100649.25
2022-12-28T05:54:06.497Z,100642.75
2022-12-28T05:55:09.340Z,100652.63
2022-12-28T05:56:14.980Z,100654.31
2022-12-28T05:57:17.395Z,100643.41
2022-12-28T05:58:19.594Z,100654.97
2022-12-28T05:59:21.807Z,100652.84
2022-12-28T06:00:24.137Z,100644.66
2022-12-28T06:01:29.217Z,100648.25
2022-12-28T06:02:31.471Z,100641.13
2022-12-28T06:03:34.703Z,100642.59
2022-12-28T06:04:36.970Z,100640.91
2022-12-28T06:05:39.111Z,100645.31
2022-12-28T06:06:41.390Z,100645.94
2022-12-28T06:07:43.575Z,100640.50
2022-12-28T06:08:49.877Z,100643.22
2022-12-28T06:09:52.024Z,100633.16
2022-12-28T06:10:54.287Z,100632.97
2022-12-28T06:11:56.528Z,100629.19
2022-12-28T06:12:58.691Z,100631.91
2022-12-28T06:14:01.179Z,100631.72
2022-12-28T06:15:04.211Z,100629.00
2022-12-28T06:16:08.444Z,100630.72
2022-12-28T06:17:10.715Z,100618.94
2022-12-28T06:18:12.912Z,100629.84
2022-12-28T06:19:15.588Z,100619.78
2022-12-28T06:20:17.784Z,100622.31
2022-12-28T06:21:23.648Z,100619.16
2022-12-28T06:22:25.929Z,100620.03
2022-12-28T06:23:28.349Z,100623.59
2022-12-28T06:24:30.701Z,100614.56
2022-12-28T06:25:32.898Z,100623.59
2022-12-28T06:26:37.424Z,100619.81
2022-12-28T06:27:39.607Z,100623.38
2022-12-28T06:28:42.544Z,100618.78
2022-12-28T06:29:44.753Z,100620.66
2022-12-28T06:30:52.329Z,100623.16
2022-12-28T06:31:56.753Z,100622.13
2022-12-28T06:32:59.055Z,100627.38
2022-12-28T06:34:03.388Z,100623.63
2022-12-28T06:35:05.971Z,100624.47
2022-12-28T06:36:22.770Z,100628.69
2022-12-28T06:37:24.939Z,100625.97
2022-12-28T06:38:27.522Z,100625.75
2022-12-28T06:39:29.718Z,100619.25
2022-12-28T06:40:54.532Z,100608.34
2022-12-28T06:41:54.043Z,100616.31
2022-12-28T06:42:56.215Z,100611.69
2022-12-28T06:43:59.567Z,100615.06
2022-12-28T06:45:01.938Z,100605.81
2022-12-28T06:46:05.216Z,100607.50
2022-12-28T06:47:09.926Z,100606.66
2022-12-28T06:48:12.081Z,100610.00
2022-12-28T06:49:14.282Z,100612.56
2022-12-28T06:50:16.644Z,100614.22
2022-12-28T06:51:22.077Z,100608.38
2022-12-28T06:52:24.216Z,100602.91
2022-12-28T06:53:29.206Z,100606.25
2022-12-28T06:54:31.401Z,100606.91
2022-12-28T06:55:33.639Z,100607.75
2022-12-28T06:56:36.505Z,100611.31
2022-12-28T06:57:38.670Z,100605.66
2022-12-28T06:58:41.741Z,100602.50
2022-12-28T06:59:43.905Z,100596.00
2022-12-28T07:00:46.121Z,100600.22
2022-12-28T07:01:48.570Z,100595.56
2022-12-28T07:02:57.747Z,100596.22
2022-12-28T07:04:01.524Z,100596.88
2022-12-28T07:05:03.910Z,100593.94
2022-12-28T07:06:06.820Z,100589.94
2022-12-28T07:07:09.251Z,100593.13
2022-12-28T07:08:12.965Z,100587.22
2022-12-28T07:09:18.534Z,100587.00
2022-12-28T07:10:20.743Z,100586.63
2022-12-28T07:11:22.935Z,100587.03
2022-12-28T07:12:25.214Z,100581.16
2022-12-28T07:13:28.476Z,100586.19
2022-12-28T07:14:32.354Z,100581.16
2022-12-28T07:15:37.654Z,100576.13
2022-12-28T07:17:41.877Z,100567.06
2022-12-28T07:18:46.519Z,100560.34
2022-12-28T07:19:48.719Z,100560.56
2022-12-28T07:20:50.914Z,100555.75
2022-12-28T07:21:53.097Z,100561.63
2022-12-28T07:22:55.269Z,100559.28
2022-12-28T07:23:58.102Z,100553.44
2022-12-28T07:25:00.274Z,100554.69
2022-12-28T07:26:11.521Z,100543.31
2022-12-28T07:27:13.748Z,100550.03
2022-12-28T07:28:16.026Z,100543.09
2022-12-28T07:29:18.183Z,100547.31
2022-12-28T07:30:20.392Z,100553.16
2022-12-28T07:31:25.184Z,100543.69
2022-12-28T07:32:27.666Z,100554.22
2022-12-28T07:33:29.828Z,100543.06
2022-12-28T07:34:34.270Z,100542.41
2022-12-28T07:35:36.457Z,100540.31
2022-12-28T07:36:38.803Z,100534.41
2022-12-28T07:37:41.050Z,100535.88
2022-12-28T07:38:44.111Z,100530.00
2022-12-28T07:39:46.289Z,100529.56
2022-12-28T07:40:48.434Z,100535.44
2022-12-28T07:41:50.654Z,100534.19
2022-12-28T07:42:59.895Z,100527.44
2022-12-28T07:44:02.421Z,100537.09
2022-12-28T07:45:04.909Z,100538.56
2022-12-28T07:46:09.843Z,100533.72
2022-12-28T07:47:12.122Z,100537.09
2022-12-28T07:48:15.642Z,100535.81
2022-12-28T07:49:17.798Z,100534.53
2022-12-28T07:50:19.937Z,100528.00
2022-12-28T07:51:25.013Z,100534.72
2022-12-28T07:52:27.195Z,100528.22
2022-12-28T07:53:29.620Z,100532.19
2022-12-28T07:54:31.938Z,100528.41
2022-12-28T07:55:34.133Z,100535.53
2022-12-28T07:57:37.359Z,100524.16
2022-12-28T07:59:41.798Z,100518.25
2022-12-28T08:00:43.998Z,100518.03
2022-12-28T08:01:46.244Z,100518.66
2022-12-28T08:02:48.517Z,100509.63
2022-12-28T08:03:55.941Z,100526.41
2022-12-28T08:04:58.126Z,100520.34
2022-12-28T08:06:24.559Z,100532.75
2022-12-28T08:07:27.167Z,100521.56
2022-12-28T08:08:29.538Z,100519.06
2022-12-28T08:09:31.788Z,100520.72
2022-12-28T08:10:33.961Z,100518.63
2022-12-28T08:11:38.429Z,100519.44
2022-12-28T08:12:40.634Z,100522.19
2022-12-28T08:13:45.352Z,100518.38
2022-12-28T08:14:47.503Z,100516.50
2022-12-28T08:15:55.805Z,100522.59
2022-12-28T08:16:58.008Z,100523.22
2022-12-28T08:18:00.830Z,100515.59
2022-12-28T08:19:04.366Z,100509.09
2022-12-28T08:20:07.012Z,100509.94
2022-12-28T08:21:13.715Z,100506.75
2022-12-28T08:22:15.942Z,100504.84
2022-12-28T08:23:18.109Z,100507.59
2022-12-28T08:24:20.623Z,100498.94
2022-12-28T08:25:22.799Z,100492.19
2022-12-28T08:26:33.742Z,100487.31
2022-12-28T08:27:38.598Z,100486.88
2022-12-28T08:28:43.043Z,100484.75
2022-12-28T08:29:45.227Z,100492.75
2022-12-28T08:30:47.476Z,100492.53
2022-12-28T08:31:50.434Z,100492.31
2022-12-28T08:32:52.665Z,100491.03
2022-12-28T08:33:57.129Z,100490.34
2022-12-28T08:34:59.308Z,100480.25
2022-12-28T08:36:01.499Z,100474.34
2022-12-28T08:37:03.783Z,100479.38
2022-12-28T08:38:05.925Z,100474.53
2022-12-28T08:39:08.755Z,100482.28
2022-12-28T08:40:11.498Z,100470.91
2022-12-28T08:41:17.177Z,100468.75
2022-12-28T08:42:19.442Z,100471.91
2022-12-28T08:43:21.604Z,100465.34
2022-12-28T08:44:23.959Z,100468.50
2022-12-28T08:45:26.561Z,100468.88
2022-12-28T08:46:31.434Z,100468.44
2022-12-28T08:47:33.768Z,100465.22
2022-12-28T08:48:35.990Z,100464.56
2022-12-28T08:49:38.869Z,100472.09
2022-12-28T08:50:41.033Z,100463.44
2022-12-28T08:51:43.310Z,100460.00
2022-12-28T08:52:46.046Z,100462.91
2022-12-28T08:53:49.104Z,100462.25
2022-12-28T08:54:51.392Z,100455.25
2022-12-28T08:55:53.789Z,100466.38
2022-12-28T08:56:56.014Z,100452.81
2022-12-28T08:57:58.223Z,100454.66
2022-12-28T08:59:00.895Z,100453.13
2022-12-28T09:00:06.346Z,100444.00
2022-12-28T09:01:11.585Z,100450.69
2022-12-28T09:02:14.360Z,100448.91
2022-12-28T09:03:16.796Z,100447.38
2022-12-28T09:04:21.952Z,100434.66
2022-12-28T09:05:24.108Z,100439.44
2022-12-28T09:06:30.488Z,100439.84
2022-12-28T09:07:32.686Z,100441.28
2022-12-28T09:08:38.238Z,100443.31
2022-12-28T09:09:40.923Z,100442.88
2022-12-28T09:10:43.119Z,100444.06
2022-12-28T09:11:46.183Z,100446.34
2022-12-28T09:12:48.399Z,100450.53
2022-12-28T09:13:51.109Z,100441.63
2022-12-28T09:14:53.264Z,100448.53
2022-12-28T09:16:02.260Z,100434.34
2022-12-28T09:17:04.469Z,100435.78
2022-12-28T09:18:07.866Z,100435.53
2022-12-28T09:19:13.880Z,100433.19
2022-12-28T09:20:16.146Z,100431.88
2022-12-28T09:21:19.822Z,100430.56
2022-12-28T09:22:22.101Z,100429.25
2022-12-28T09:23:24.510Z,100438.13
2022-12-28T09:24:26.742Z,100439.56
2022-12-28T09:25:28.872Z,100435.72
2022-12-28T09:26:34.314Z,100431.44
2022-12-28T09:27:36.475Z,100416.63
2022-12-28T09:28:38.911Z,100421.66
2022-12-28T09:29:41.118Z,100419.50
2022-12-28T09:30:43.293Z,100424.53
2022-12-28T09:31:45.495Z,100418.81
2022-12-28T09:33:07.685Z,100420.25
2022-12-28T09:35:35.393Z,100412.75
2022-12-28T09:36:39.958Z,100418.84
2022-12-28T09:37:42.138Z,100403.19
2022-12-28T09:38:44.420Z,100414.56
2022-12-28T09:39:47.571Z,100415.16
2022-12-28T09:40:50.013Z,100404.75
2022-12-28T09:42:02.400Z,100402.38
2022-12-28T09:43:05.957Z,100398.31
2022-12-28T09:44:46.018Z,100402.50
2022-12-28T09:45:48.618Z,100405.63
2022-12-28T09:47:24.235Z,100402.38
2022-12-28T09:48:27.898Z,100405.72
2022-12-28T09:49:44.815Z,100400.81
2022-12-28T09:50:47.712Z,100400.59
2022-12-28T09:51:57.728Z,100402.88
2022-12-28T09:53:21.309Z,100402.63
2022-12-28T09:54:23.880Z,100402.97
2022-12-28T09:55:27.801Z,100409.31
2022-12-28T09:56:36.936Z,100404.41
2022-12-28T09:57:43.634Z,100403.09
2022-12-28T09:58:48.110Z,100406.66
2022-12-28T09:59:53.236Z,100390.78
2022-12-28T10:01:00.492Z,100401.28
2022-12-28T10:02:05.255Z,100396.41
2022-12-28T10:03:15.784Z,100395.31
2022-12-28T10:04:18.045Z,100401.16
2022-12-28T10:05:21.611Z,100395.66
2022-12-28T10:06:29.909Z,100388.84
2022-12-28T10:07:32.619Z,100395.78
2022-12-28T10:08:39.262Z,100392.78
2022-12-28T10:09:41.576Z,100385.13
2022-12-28T10:10:48.595Z,100395.06
2022-12-28T10:11:51.566Z,100387.38
2022-12-28T10:12:54.494Z,100382.75
2022-12-28T10:13:59.358Z,100385.00
2022-12-28T10:15:02.561Z,100383.94
2022-12-28T10:16:06.960Z,100378.78
2022-12-28T10:17:13.606Z,100381.28
2022-12-28T10:18:22.269Z,100375.53
2022-12-28T10:19:27.265Z,100376.13
2022-12-28T10:20:30.010Z,100375.03
2022-12-28T10:21:33.621Z,100367.63
2022-12-28T10:22:42.415Z,100368.22
2022-12-28T10:24:29.205Z,100366.88
2022-12-28T10:25:31.160Z,100364.75
2022-12-28T10:26:38.020Z,100360.91
2022-12-28T10:27:40.441Z,100356.00
2022-12-28T10:28:53.875Z,100353.00
2022-12-28T10:29:59.882Z,100350.00
2022-12-28T10:31:03.861Z,100344.25
2022-12-28T10:32:16.674Z,100341.25
2022-12-28T10:33:19.830Z,100336.34
2022-12-28T10:34:22.843Z,100341.59
2022-12-28T10:35:50.557Z,100343.28
2022-12-28T10:36:54.633Z,100340.03
2022-12-28T10:38:22.455Z,100340.84
2022-12-28T10:39:32.983Z,100342.28
2022-12-28T10:40:39.624Z,100335.44
2022-12-28T10:41:41.986Z,100333.53
2022-12-28T10:42:46.648Z,100328.38
2022-12-28T10:44:21.602Z,100334.72
2022-12-28T10:45:24.158Z,100330.63
2022-12-28T10:46:26.591Z,100332.88
2022-12-28T10:47:35.991Z,100328.22
2022-12-28T10:48:39.816Z,100322.47
2022-12-28T10:50:02.734Z,100326.66
2022-12-28T10:51:16.458Z,100326.41
2022-12-28T10:52:21.366Z,100328.06
2022-12-28T10:53:27.866Z,100324.00
2022-12-28T10:54:36.842Z,100322.91
2022-12-28T10:55:39.937Z,100326.25
2022-12-28T10:56:49.417Z,100323.22
2022-12-28T10:58:27.578Z,100317.50
2022-12-28T10:59:24.421Z,100318.06
2022-12-28T11:00:26.768Z,100326.06
2022-12-28T11:01:33.006Z,100322.25
2022-12-28T11:02:35.573Z,100316.75
2022-12-28T11:03:46.435Z,100300.81
2022-12-28T11:04:59.593Z,100295.88
2022-12-28T11:06:35.887Z,100299.22
2022-12-28T11:07:41.360Z,100303.91
2022-12-28T11:08:45.524Z,100300.91
2022-12-28T11:09:47.678Z,100299.78
2022-12-28T11:10:57.923Z,100303.41
2022-12-28T11:12:22.413Z,100301.50
2022-12-28T11:13:29.848Z,100287.72
2022-12-28T11:14:36.085Z,100284.72
2022-12-28T11:15:40.475Z,100288.59
2022-12-28T11:16:43.424Z,100290.22
2022-12-28T11:18:10.551Z,100290.22
2022-12-28T11:19:13.951Z,100284.72
2022-12-28T11:20:21.272Z,100278.38
2022-12-28T11:21:23.505Z,100286.66
2022-12-28T11:22:30.314Z,100286.41
2022-12-28T11:23:34.402Z,100294.66
2022-12-28T11:24:39.623Z,100287.25
2022-12-28T11:25:42.003Z,100287.81
2022-12-28T11:26:47.758Z,100285.06
2022-12-28T11:27:49.974Z,100270.22
2022-12-28T11:28:54.952Z,100271.88
2022-12-28T11:30:00.798Z,100265.53
2022-12-28T11:31:04.658Z,100271.88
2022-12-28T11:32:15.514Z,100269.13
2022-12-28T11:33:42.404Z,100282.38
2022-12-28T11:34:44.992Z,100275.81
2022-12-28T11:35:49.368Z,100276.41
2022-12-28T11:36:52.107Z,100275.53
2022-12-28T11:37:59.632Z,100278.03
2022-12-28T11:39:27.396Z,100265.94
2022-12-28T11:40:45.285Z,100270.38
2022-12-28T11:42:10.347Z,100266.53
2022-12-28T11:43:31.213Z,100265.47
2022-12-28T11:44:39.386Z,100262.44
2022-12-28T11:45:51.966Z,100262.19
2022-12-28T11:47:26.553Z,100256.41
2022-12-28T11:48:42.581Z,100256.16
2022-12-28T11:49:47.412Z,100253.66
2022-12-28T11:50:52.823Z,100258.91
2022-12-28T11:52:17.013Z,100255.06
2022-12-28T11:53:43.840Z,100255.06
2022-12-28T11:54:55.981Z,100260.34
2022-12-28T11:56:07.043Z,100253.16
2022-12-28T11:57:11.245Z,100252.91
2022-12-28T11:58:28.878Z,100255.41
2022-12-28T11:59:32.203Z,100254.56
2022-12-28T12:00:47.069Z,100255.41
2022-12-28T12:02:00.505Z,100254.56
2022-12-28T12:03:02.997Z,100250.47
2022-12-28T12:04:05.311Z,100238.63
2022-12-28T12:05:47.423Z,100243.88
2022-12-28T12:06:52.683Z,100243.06
2022-12-28T12:07:54.917Z,100244.72
2022-12-28T12:08:57.121Z,100248.03
2022-12-28T12:10:15.254Z,100238.97
2022-12-28T12:11:31.983Z,100241.47
2022-12-28T12:12:37.393Z,100235.13
2022-12-28T12:13:47.662Z,100232.38
2022-12-28T12:15:10.184Z,100237.63
2022-12-28T12:16:21.921Z,100233.78
2022-12-28T12:18:14.432Z,100229.09
2022-12-28T12:19:35.281Z,100237.09
2022-12-28T12:21:38.269Z,100243.47
2022-12-28T12:22:49.375Z,100247.63
2022-12-28T12:24:04.481Z,100244.28
2022-12-28T12:25:34.830Z,100246.78
2022-12-28T12:26:53.200Z,100239.09
2022-12-28T12:27:59.207Z,100239.38
2022-12-28T12:29:39.313Z,100242.13
2022-12-28T12:30:44.245Z,100241.00
2022-12-28T12:32:21.156Z,100238.50
2022-12-28T12:33:32.929Z,100235.75
2022-12-28T12:34:52.098Z,100228.56
2022-12-28T12:36:08.627Z,100233.00
2022-12-28T12:37:49.697Z,100228.56
2022-12-28T12:39:11.119Z,100226.66
2022-12-28T12:40:31.706Z,100212.03
2022-12-28T12:41:59.797Z,100228.84
2022-12-28T12:43:39.525Z,100235.44
2022-12-28T12:44:54.767Z,100226.34
2022-12-28T12:46:06.452Z,100233.78
2022-12-28T12:47:35.473Z,100234.00
2022-12-28T12:49:16.995Z,100235.94
2022-12-28T12:50:43.894Z,100227.69
2022-12-28T12:52:08.276Z,100224.09
2022-12-28T12:53:48.728Z,100223.25
2022-12-28T12:55:30.725Z,100222.44
2022-12-28T12:56:45.309Z,100235.13